Weather at Chania International Airport

Public forecast

Using degrees Celsius for public forecast. Weather courtesy of forecast.io.

Current aviation weather report (METAR) for Chania International Airport

Report is more than 6 hours old.

2022/11/14 15:20 (retrieved 2 years ago)

LGSA 141520Z /////KT 9999 FEW020 16/13 Q1021

Aviation forecast (TAF) for Chania International Airport

Forecast is more than 12 hours old.

2023/02/22 18:13 (retrieved 1 year ago)

TAF LGSA 221700Z 2218/2318 27013KT 9999 SCT020 TEMPO 2218/2306 FEW020 BKN030